sensor_id;sensor_type;location;lat;lon;timestamp;temperature;humidity
19292;DHT22;9779;51.756;7.450;2022-07-17T00:00:19;17.70;99.90
19292;DHT22;9779;51.756;7.450;2022-07-17T00:02:45;17.60;99.90
19292;DHT22;9779;51.756;7.450;2022-07-17T00:05:14;17.60;99.90
19292;DHT22;9779;51.756;7.450;2022-07-17T00:07:39;17.50;99.90
19292;DHT22;9779;51.756;7.450;2022-07-17T00:10:05;17.50;99.90
19292;DHT22;9779;51.756;7.450;2022-07-17T00:12:31;17.40;99.90
19292;DHT22;9779;51.756;7.450;2022-07-17T00:14:57;17.40;99.90
19292;DHT22;9779;51.756;7.450;2022-07-17T00:17:22;17.30;99.90
19292;DHT22;9779;51.756;7.450;2022-07-17T00:19:48;17.20;99.90
19292;DHT22;9779;51.756;7.450;2022-07-17T00:22:13;17.20;99.90
19292;DHT22;9779;51.756;7.450;2022-07-17T00:29:31;17.00;99.90
19292;DHT22;9779;51.756;7.450;2022-07-17T00:31:57;17.10;99.90
19292;DHT22;9779;51.756;7.450;2022-07-17T00:34:23;17.00;99.90
19292;DHT22;9779;51.756;7.450;2022-07-17T00:36:48;16.90;99.90
19292;DHT22;9779;51.756;7.450;2022-07-17T00:39:14;16.80;99.90
19292;DHT22;9779;51.756;7.450;2022-07-17T00:41:40;16.80;99.90
19292;DHT22;9779;51.756;7.450;2022-07-17T00:44:10;16.80;99.90
19292;DHT22;9779;51.756;7.450;2022-07-17T00:46:38;16.70;99.90
19292;DHT22;9779;51.756;7.450;2022-07-17T00:49:04;16.70;99.90
19292;DHT22;9779;51.756;7.450;2022-07-17T00:51:30;16.60;99.90
19292;DHT22;9779;51.756;7.450;2022-07-17T00:53:58;16.60;99.90
19292;DHT22;9779;51.756;7.450;2022-07-17T00:56:24;16.50;99.90
19292;DHT22;9779;51.756;7.450;2022-07-17T00:58:52;16.50;99.90
19292;DHT22;9779;51.756;7.450;2022-07-17T01:01:18;16.50;99.90
19292;DHT22;9779;51.756;7.450;2022-07-17T01:03:44;16.40;99.90
19292;DHT22;9779;51.756;7.450;2022-07-17T01:06:09;16.40;99.90
19292;DHT22;9779;51.756;7.450;2022-07-17T01:08:36;16.40;99.90
19292;DHT22;9779;51.756;7.450;2022-07-17T01:11:02;16.30;99.90
19292;DHT22;9779;51.756;7.450;2022-07-17T01:13:30;16.30;99.90
19292;DHT22;9779;51.756;7.450;2022-07-17T01:15:58;16.30;99.90
19292;DHT22;9779;51.756;7.450;2022-07-17T01:18:23;16.20;99.90
19292;DHT22;9779;51.756;7.450;2022-07-17T01:20:50;16.10;99.90
19292;DHT22;9779;51.756;7.450;2022-07-17T01:23:17;16.10;99.90
19292;DHT22;9779;51.756;7.450;2022-07-17T01:25:44;16.10;99.90
19292;DHT22;9779;51.756;7.450;2022-07-17T01:28:10;16.00;99.90
19292;DHT22;9779;51.756;7.450;2022-07-17T01:30:36;16.00;99.90
19292;DHT22;9779;51.756;7.450;2022-07-17T01:33:03;15.90;99.90
19292;DHT22;9779;51.756;7.450;2022-07-17T01:35:29;15.90;99.90
19292;DHT22;9779;51.756;7.450;2022-07-17T01:37:54;15.80;99.90
19292;DHT22;9779;51.756;7.450;2022-07-17T01:40:20;15.80;99.90
19292;DHT22;9779;51.756;7.450;2022-07-17T01:42:48;15.80;99.90
19292;DHT22;9779;51.756;7.450;2022-07-17T01:45:14;15.70;99.90
19292;DHT22;9779;51.756;7.450;2022-07-17T01:47:41;15.70;99.90
19292;DHT22;9779;51.756;7.450;2022-07-17T01:50:07;15.60;99.90
19292;DHT22;9779;51.756;7.450;2022-07-17T01:52:36;15.60;99.90
19292;DHT22;9779;51.756;7.450;2022-07-17T01:55:06;15.50;99.90
19292;DHT22;9779;51.756;7.450;2022-07-17T01:57:33;15.50;99.90
19292;DHT22;9779;51.756;7.450;2022-07-17T01:59:59;15.40;99.90
19292;DHT22;9779;51.756;7.450;2022-07-17T02:02:25;15.40;99.90
19292;DHT22;9779;51.756;7.450;2022-07-17T02:07:17;15.30;99.90
19292;DHT22;9779;51.756;7.450;2022-07-17T02:09:43;15.20;99.90
19292;DHT22;9779;51.756;7.450;2022-07-17T02:12:08;15.20;99.90
19292;DHT22;9779;51.756;7.450;2022-07-17T02:14:35;15.10;99.90
19292;DHT22;9779;51.756;7.450;2022-07-17T02:17:00;15.20;99.90
19292;DHT22;9779;51.756;7.450;2022-07-17T02:19:26;15.10;99.90
19292;DHT22;9779;51.756;7.450;2022-07-17T02:21:52;15.10;99.90
19292;DHT22;9779;51.756;7.450;2022-07-17T02:24:18;15.10;99.90
19292;DHT22;9779;51.756;7.450;2022-07-17T02:26:44;15.00;99.90
19292;DHT22;9779;51.756;7.450;2022-07-17T02:29:09;15.00;99.90
19292;DHT22;9779;51.756;7.450;2022-07-17T02:31:35;14.90;99.90
19292;DHT22;9779;51.756;7.450;2022-07-17T02:34:01;14.90;99.90
19292;DHT22;9779;51.756;7.450;2022-07-17T02:36:26;14.90;99.90
19292;DHT22;9779;51.756;7.450;2022-07-17T02:38:52;14.80;99.90
19292;DHT22;9779;51.756;7.450;2022-07-17T02:41:18;14.80;99.90
19292;DHT22;9779;51.756;7.450;2022-07-17T02:43:43;14.80;99.90
19292;DHT22;9779;51.756;7.450;2022-07-17T02:46:09;14.80;99.90
19292;DHT22;9779;51.756;7.450;2022-07-17T02:48:34;14.70;99.90
19292;DHT22;9779;51.756;7.450;2022-07-17T02:51:00;14.70;99.90
19292;DHT22;9779;51.756;7.450;2022-07-17T02:53:26;14.70;99.90
19292;DHT22;9779;51.756;7.450;2022-07-17T02:55:52;14.60;99.90
19292;DHT22;9779;51.756;7.450;2022-07-17T02:58:21;14.60;99.90
19292;DHT22;9779;51.756;7.450;2022-07-17T03:00:46;14.60;99.90
19292;DHT22;9779;51.756;7.450;2022-07-17T03:03:12;14.60;99.90
19292;DHT22;9779;51.756;7.450;2022-07-17T03:05:37;14.60;99.90
19292;DHT22;9779;51.756;7.450;2022-07-17T03:08:03;14.50;99.90
19292;DHT22;9779;51.756;7.450;2022-07-17T03:10:29;14.50;99.90
19292;DHT22;9779;51.756;7.450;2022-07-17T03:12:54;14.50;99.90
19292;DHT22;9779;51.756;7.450;2022-07-17T03:15:20;14.40;99.90
19292;DHT22;9779;51.756;7.450;2022-07-17T03:17:47;14.40;99.90
19292;DHT22;9779;51.756;7.450;2022-07-17T03:20:12;14.40;99.90
19292;DHT22;9779;51.756;7.450;2022-07-17T03:22:38;14.30;99.90
19292;DHT22;9779;51.756;7.450;2022-07-17T03:25:04;14.30;99.90
19292;DHT22;9779;51.756;7.450;2022-07-17T03:27:29;14.30;99.90
19292;DHT22;9779;51.756;7.450;2022-07-17T03:29:55;14.20;99.90
19292;DHT22;9779;51.756;7.450;2022-07-17T03:32:21;14.20;99.90
19292;DHT22;9779;51.756;7.450;2022-07-17T03:34:47;14.20;99.90
19292;DHT22;9779;51.756;7.450;2022-07-17T03:37:12;14.20;99.90
19292;DHT22;9779;51.756;7.450;2022-07-17T03:39:38;14.10;99.90
19292;DHT22;9779;51.756;7.450;2022-07-17T03:42:04;14.10;99.90
19292;DHT22;9779;51.756;7.450;2022-07-17T03:44:29;14.10;99.90
19292;DHT22;9779;51.756;7.450;2022-07-17T03:46:55;14.00;99.90
19292;DHT22;9779;51.756;7.450;2022-07-17T03:49:21;14.00;99.90
19292;DHT22;9779;51.756;7.450;2022-07-17T03:51:46;14.00;99.90
19292;DHT22;9779;51.756;7.450;2022-07-17T03:54:12;14.00;99.90
19292;DHT22;9779;51.756;7.450;2022-07-17T03:56:38;14.00;99.90
19292;DHT22;9779;51.756;7.450;2022-07-17T03:59:03;14.00;99.90
19292;DHT22;9779;51.756;7.450;2022-07-17T04:01:29;13.90;99.90
19292;DHT22;9779;51.756;7.450;2022-07-17T04:03:54;13.90;99.90
19292;DHT22;9779;51.756;7.450;2022-07-17T04:06:20;13.80;99.90
19292;DHT22;9779;51.756;7.450;2022-07-17T04:08:45;13.90;99.90
19292;DHT22;9779;51.756;7.450;2022-07-17T04:11:11;13.80;99.90
19292;DHT22;9779;51.756;7.450;2022-07-17T04:13:37;13.90;99.90
19292;DHT22;9779;51.756;7.450;2022-07-17T04:16:03;13.80;99.90
19292;DHT22;9779;51.756;7.450;2022-07-17T04:18:31;13.80;99.90
19292;DHT22;9779;51.756;7.450;2022-07-17T04:21:01;13.70;99.90
19292;DHT22;9779;51.756;7.450;2022-07-17T04:23:27;13.70;99.90
19292;DHT22;9779;51.756;7.450;2022-07-17T04:25:53;13.70;99.90
19292;DHT22;9779;51.756;7.450;2022-07-17T04:28:19;13.70;99.90
19292;DHT22;9779;51.756;7.450;2022-07-17T04:30:45;13.70;99.90
19292;DHT22;9779;51.756;7.450;2022-07-17T04:33:11;13.70;99.90
19292;DHT22;9779;51.756;7.450;2022-07-17T04:35:37;13.70;99.90
19292;DHT22;9779;51.756;7.450;2022-07-17T04:38:04;13.70;99.90
19292;DHT22;9779;51.756;7.450;2022-07-17T04:40:30;13.70;99.90
19292;DHT22;9779;51.756;7.450;2022-07-17T04:42:56;13.60;99.90
19292;DHT22;9779;51.756;7.450;2022-07-17T04:45:22;13.60;99.90
19292;DHT22;9779;51.756;7.450;2022-07-17T04:47:47;13.70;99.90
19292;DHT22;9779;51.756;7.450;2022-07-17T04:50:13;13.70;99.90
19292;DHT22;9779;51.756;7.450;2022-07-17T04:52:38;13.60;99.90
19292;DHT22;9779;51.756;7.450;2022-07-17T04:55:04;13.70;99.90
19292;DHT22;9779;51.756;7.450;2022-07-17T04:57:30;13.70;99.90
19292;DHT22;9779;51.756;7.450;2022-07-17T04:59:56;13.60;99.90
19292;DHT22;9779;51.756;7.450;2022-07-17T05:02:21;13.60;99.90
19292;DHT22;9779;51.756;7.450;2022-07-17T05:04:47;13.60;99.90
19292;DHT22;9779;51.756;7.450;2022-07-17T05:07:13;13.60;99.90
19292;DHT22;9779;51.756;7.450;2022-07-17T05:09:39;13.70;99.90
19292;DHT22;9779;51.756;7.450;2022-07-17T05:12:05;13.60;99.90
19292;DHT22;9779;51.756;7.450;2022-07-17T05:14:31;13.50;99.90
19292;DHT22;9779;51.756;7.450;2022-07-17T05:16:56;13.60;99.90
19292;DHT22;9779;51.756;7.450;2022-07-17T05:19:22;13.60;99.90
19292;DHT22;9779;51.756;7.450;2022-07-17T05:21:49;13.60;99.90
19292;DHT22;9779;51.756;7.450;2022-07-17T05:24:15;13.50;99.90
19292;DHT22;9779;51.756;7.450;2022-07-17T05:26:41;13.60;99.90
19292;DHT22;9779;51.756;7.450;2022-07-17T05:29:07;13.60;99.90
19292;DHT22;9779;51.756;7.450;2022-07-17T05:31:32;13.70;99.90
19292;DHT22;9779;51.756;7.450;2022-07-17T05:33:58;13.80;99.90
19292;DHT22;9779;51.756;7.450;2022-07-17T05:36:23;13.80;99.90
19292;DHT22;9779;51.756;7.450;2022-07-17T05:38:49;13.90;99.90
19292;DHT22;9779;51.756;7.450;2022-07-17T05:41:14;13.90;99.90
19292;DHT22;9779;51.756;7.450;2022-07-17T05:43:40;14.00;99.90
19292;DHT22;9779;51.756;7.450;2022-07-17T05:46:06;14.00;99.90
19292;DHT22;9779;51.756;7.450;2022-07-17T05:48:31;14.10;99.90
19292;DHT22;9779;51.756;7.450;2022-07-17T05:50:57;14.10;99.90
19292;DHT22;9779;51.756;7.450;2022-07-17T05:53:23;14.10;99.90
19292;DHT22;9779;51.756;7.450;2022-07-17T05:55:49;14.10;99.90
19292;DHT22;9779;51.756;7.450;2022-07-17T05:58:15;14.20;99.90
19292;DHT22;9779;51.756;7.450;2022-07-17T06:00:41;14.20;99.90
19292;DHT22;9779;51.756;7.450;2022-07-17T06:03:07;14.30;99.90
19292;DHT22;9779;51.756;7.450;2022-07-17T06:05:32;14.30;99.90
19292;DHT22;9779;51.756;7.450;2022-07-17T06:07:58;14.30;99.90
19292;DHT22;9779;51.756;7.450;2022-07-17T06:10:24;14.40;99.90
19292;DHT22;9779;51.756;7.450;2022-07-17T06:12:50;14.50;99.90
19292;DHT22;9779;51.756;7.450;2022-07-17T06:15:19;14.50;99.90
19292;DHT22;9779;51.756;7.450;2022-07-17T06:17:44;14.60;99.90
19292;DHT22;9779;51.756;7.450;2022-07-17T06:20:11;14.60;99.90
19292;DHT22;9779;51.756;7.450;2022-07-17T06:22:36;14.70;99.90
19292;DHT22;9779;51.756;7.450;2022-07-17T06:25:02;14.70;99.90
19292;DHT22;9779;51.756;7.450;2022-07-17T06:27:28;14.80;99.90
19292;DHT22;9779;51.756;7.450;2022-07-17T06:29:53;14.80;99.90
19292;DHT22;9779;51.756;7.450;2022-07-17T06:32:19;14.90;99.90
19292;DHT22;9779;51.756;7.450;2022-07-17T06:34:44;14.90;99.90
19292;DHT22;9779;51.756;7.450;2022-07-17T06:37:10;15.10;99.90
19292;DHT22;9779;51.756;7.450;2022-07-17T06:39:35;15.20;99.90
19292;DHT22;9779;51.756;7.450;2022-07-17T06:42:01;15.30;99.90
19292;DHT22;9779;51.756;7.450;2022-07-17T06:44:27;15.30;99.90
19292;DHT22;9779;51.756;7.450;2022-07-17T06:46:53;15.30;99.90
19292;DHT22;9779;51.756;7.450;2022-07-17T06:49:18;15.40;99.90
19292;DHT22;9779;51.756;7.450;2022-07-17T06:51:44;15.40;99.90
19292;DHT22;9779;51.756;7.450;2022-07-17T06:54:12;15.50;99.90
19292;DHT22;9779;51.756;7.450;2022-07-17T06:56:38;15.60;99.90
19292;DHT22;9779;51.756;7.450;2022-07-17T06:59:03;15.70;99.90
19292;DHT22;9779;51.756;7.450;2022-07-17T07:01:33;15.70;99.90
19292;DHT22;9779;51.756;7.450;2022-07-17T07:03:58;15.80;99.90
19292;DHT22;9779;51.756;7.450;2022-07-17T07:06:24;15.80;99.90
19292;DHT22;9779;51.756;7.450;2022-07-17T07:08:50;15.90;99.90
19292;DHT22;9779;51.756;7.450;2022-07-17T07:11:15;16.00;99.90
19292;DHT22;9779;51.756;7.450;2022-07-17T07:13:41;16.00;99.90
19292;DHT22;9779;51.756;7.450;2022-07-17T07:16:06;16.10;99.90
19292;DHT22;9779;51.756;7.450;2022-07-17T07:18:32;16.10;99.90
19292;DHT22;9779;51.756;7.450;2022-07-17T07:20:57;16.10;99.90
19292;DHT22;9779;51.756;7.450;2022-07-17T07:23:23;16.10;99.90
19292;DHT22;9779;51.756;7.450;2022-07-17T07:25:50;16.20;99.90
19292;DHT22;9779;51.756;7.450;2022-07-17T07:28:15;16.20;99.90
19292;DHT22;9779;51.756;7.450;2022-07-17T07:30:41;16.30;99.90
19292;DHT22;9779;51.756;7.450;2022-07-17T07:33:07;16.40;99.90
19292;DHT22;9779;51.756;7.450;2022-07-17T07:35:32;16.50;99.90
19292;DHT22;9779;51.756;7.450;2022-07-17T07:37:58;16.50;99.90
19292;DHT22;9779;51.756;7.450;2022-07-17T07:40:23;16.60;99.90
19292;DHT22;9779;51.756;7.450;2022-07-17T07:42:49;16.70;99.90
19292;DHT22;9779;51.756;7.450;2022-07-17T07:45:15;16.80;99.90
19292;DHT22;9779;51.756;7.450;2022-07-17T07:47:46;16.90;99.90
19292;DHT22;9779;51.756;7.450;2022-07-17T07:50:12;17.00;99.90
19292;DHT22;9779;51.756;7.450;2022-07-17T07:52:39;17.10;99.90
19292;DHT22;9779;51.756;7.450;2022-07-17T07:55:05;17.30;99.90
19292;DHT22;9779;51.756;7.450;2022-07-17T07:57:30;17.40;99.90
19292;DHT22;9779;51.756;7.450;2022-07-17T07:59:56;17.50;99.90
19292;DHT22;9779;51.756;7.450;2022-07-17T08:02:22;17.60;99.90
19292;DHT22;9779;51.756;7.450;2022-07-17T08:04:47;17.60;99.90
19292;DHT22;9779;51.756;7.450;2022-07-17T08:07:13;17.60;99.90
19292;DHT22;9779;51.756;7.450;2022-07-17T08:09:38;17.80;99.90
19292;DHT22;9779;51.756;7.450;2022-07-17T08:12:04;17.90;99.90
19292;DHT22;9779;51.756;7.450;2022-07-17T08:14:30;18.10;99.90
19292;DHT22;9779;51.756;7.450;2022-07-17T08:16:55;18.10;99.90
19292;DHT22;9779;51.756;7.450;2022-07-17T08:19:21;18.20;99.90
19292;DHT22;9779;51.756;7.450;2022-07-17T08:21:46;18.40;99.90
19292;DHT22;9779;51.756;7.450;2022-07-17T08:24:12;18.50;99.90
19292;DHT22;9779;51.756;7.450;2022-07-17T08:26:38;18.50;99.90
19292;DHT22;9779;51.756;7.450;2022-07-17T08:29:03;18.60;99.90
19292;DHT22;9779;51.756;7.450;2022-07-17T08:31:29;18.70;99.90
19292;DHT22;9779;51.756;7.450;2022-07-17T08:33:54;18.80;99.90
19292;DHT22;9779;51.756;7.450;2022-07-17T08:36:20;19.00;99.90
19292;DHT22;9779;51.756;7.450;2022-07-17T08:38:46;19.00;99.90
19292;DHT22;9779;51.756;7.450;2022-07-17T08:41:14;19.00;99.90
19292;DHT22;9779;51.756;7.450;2022-07-17T08:43:42;19.10;99.90
19292;DHT22;9779;51.756;7.450;2022-07-17T08:46:10;19.10;99.90
19292;DHT22;9779;51.756;7.450;2022-07-17T08:48:39;19.30;99.90
19292;DHT22;9779;51.756;7.450;2022-07-17T08:51:06;19.30;99.90
19292;DHT22;9779;51.756;7.450;2022-07-17T08:53:32;19.40;99.90
19292;DHT22;9779;51.756;7.450;2022-07-17T08:55:58;19.70;99.90
19292;DHT22;9779;51.756;7.450;2022-07-17T08:58:23;19.90;99.90
19292;DHT22;9779;51.756;7.450;2022-07-17T09:00:50;19.70;99.90
19292;DHT22;9779;51.756;7.450;2022-07-17T09:03:16;19.90;99.90
19292;DHT22;9779;51.756;7.450;2022-07-17T09:05:43;20.10;99.90
19292;DHT22;9779;51.756;7.450;2022-07-17T09:08:17;20.20;99.90
19292;DHT22;9779;51.756;7.450;2022-07-17T09:10:45;20.20;99.90
19292;DHT22;9779;51.756;7.450;2022-07-17T09:13:24;20.00;99.90
19292;DHT22;9779;51.756;7.450;2022-07-17T09:15:53;20.40;99.90
19292;DHT22;9779;51.756;7.450;2022-07-17T09:18:19;20.50;99.90
19292;DHT22;9779;51.756;7.450;2022-07-17T09:20:55;20.50;99.90
19292;DHT22;9779;51.756;7.450;2022-07-17T09:23:22;20.70;99.90
19292;DHT22;9779;51.756;7.450;2022-07-17T09:25:50;20.90;99.90
19292;DHT22;9779;51.756;7.450;2022-07-17T09:28:16;21.00;99.90
19292;DHT22;9779;51.756;7.450;2022-07-17T09:30:44;21.20;99.90
19292;DHT22;9779;51.756;7.450;2022-07-17T09:33:18;21.20;99.90
19292;DHT22;9779;51.756;7.450;2022-07-17T09:38:35;21.50;99.90
19292;DHT22;9779;51.756;7.450;2022-07-17T09:44:09;21.60;99.90
19292;DHT22;9779;51.756;7.450;2022-07-17T09:46:35;21.90;99.90
19292;DHT22;9779;51.756;7.450;2022-07-17T09:49:05;22.10;99.90
19292;DHT22;9779;51.756;7.450;2022-07-17T09:51:38;22.30;99.90
19292;DHT22;9779;51.756;7.450;2022-07-17T09:54:09;22.20;99.90
19292;DHT22;9779;51.756;7.450;2022-07-17T09:56:37;22.40;99.90
19292;DHT22;9779;51.756;7.450;2022-07-17T09:59:05;22.60;99.90
19292;DHT22;9779;51.756;7.450;2022-07-17T10:01:32;22.60;99.80
19292;DHT22;9779;51.756;7.450;2022-07-17T10:03:58;22.60;99.90
19292;DHT22;9779;51.756;7.450;2022-07-17T10:06:24;22.30;99.40
19292;DHT22;9779;51.756;7.450;2022-07-17T10:08:51;22.40;99.90
19292;DHT22;9779;51.756;7.450;2022-07-17T10:11:19;22.70;99.90
19292;DHT22;9779;51.756;7.450;2022-07-17T10:13:48;23.00;99.90
19292;DHT22;9779;51.756;7.450;2022-07-17T10:16:26;23.20;98.40
19292;DHT22;9779;51.756;7.450;2022-07-17T10:18:51;23.20;98.30
19292;DHT22;9779;51.756;7.450;2022-07-17T10:21:21;23.40;98.50
19292;DHT22;9779;51.756;7.450;2022-07-17T10:28:57;24.10;96.80
19292;DHT22;9779;51.756;7.450;2022-07-17T10:31:28;24.10;95.90
19292;DHT22;9779;51.756;7.450;2022-07-17T10:33:58;24.30;95.80
19292;DHT22;9779;51.756;7.450;2022-07-17T10:39:15;21.10;91.10
19292;DHT22;9779;51.756;7.450;2022-07-17T10:41:42;24.50;90.40
19292;DHT22;9779;51.756;7.450;2022-07-17T10:44:07;24.70;91.80
19292;DHT22;9779;51.756;7.450;2022-07-17T10:46:34;25.00;91.70
19292;DHT22;9779;51.756;7.450;2022-07-17T10:49:01;25.20;90.70
19292;DHT22;9779;51.756;7.450;2022-07-17T10:51:29;25.20;91.40
19292;DHT22;9779;51.756;7.450;2022-07-17T10:53:59;24.40;99.90
19292;DHT22;9779;51.756;7.450;2022-07-17T10:56:26;25.80;84.90
19292;DHT22;9779;51.756;7.450;2022-07-17T10:58:52;25.90;84.30
19292;DHT22;9779;51.756;7.450;2022-07-17T11:01:20;25.90;83.60
19292;DHT22;9779;51.756;7.450;2022-07-17T11:06:19;26.20;81.60
19292;DHT22;9779;51.756;7.450;2022-07-17T11:11:11;26.90;81.50
19292;DHT22;9779;51.756;7.450;2022-07-17T11:13:37;26.80;76.00
19292;DHT22;9779;51.756;7.450;2022-07-17T11:16:02;26.70;77.90
19292;DHT22;9779;51.756;7.450;2022-07-17T11:18:29;26.70;77.50
19292;DHT22;9779;51.756;7.450;2022-07-17T11:20:59;27.00;73.40
19292;DHT22;9779;51.756;7.450;2022-07-17T11:23:29;27.20;75.90
19292;DHT22;9779;51.756;7.450;2022-07-17T11:26:05;27.60;75.20
19292;DHT22;9779;51.756;7.450;2022-07-17T11:28:33;27.80;73.60
19292;DHT22;9779;51.756;7.450;2022-07-17T11:30:59;27.80;72.00
19292;DHT22;9779;51.756;7.450;2022-07-17T11:33:25;28.00;71.70
19292;DHT22;9779;51.756;7.450;2022-07-17T11:35:51;28.00;70.00
19292;DHT22;9779;51.756;7.450;2022-07-17T11:38:24;28.10;69.10
19292;DHT22;9779;51.756;7.450;2022-07-17T11:40:50;27.90;68.20
19292;DHT22;9779;51.756;7.450;2022-07-17T11:43:16;28.20;70.90
19292;DHT22;9779;51.756;7.450;2022-07-17T11:45:42;28.50;64.00
19292;DHT22;9779;51.756;7.450;2022-07-17T11:48:08;28.40;62.00
19292;DHT22;9779;51.756;7.450;2022-07-17T11:50:34;28.20;62.40
19292;DHT22;9779;51.756;7.450;2022-07-17T11:53:02;28.20;61.60
19292;DHT22;9779;51.756;7.450;2022-07-17T11:55:41;28.10;64.20
19292;DHT22;9779;51.756;7.450;2022-07-17T11:58:07;28.40;60.20
19292;DHT22;9779;51.756;7.450;2022-07-17T12:00:33;28.60;57.90
19292;DHT22;9779;51.756;7.450;2022-07-17T12:03:00;28.40;59.20
19292;DHT22;9779;51.756;7.450;2022-07-17T12:05:31;28.90;59.80
19292;DHT22;9779;51.756;7.450;2022-07-17T12:07:56;29.20;60.10
19292;DHT22;9779;51.756;7.450;2022-07-17T12:10:25;29.30;58.30
19292;DHT22;9779;51.756;7.450;2022-07-17T12:12:52;29.40;75.40
19292;DHT22;9779;51.756;7.450;2022-07-17T12:15:19;29.90;96.80
19292;DHT22;9779;51.756;7.450;2022-07-17T12:27:52;30.60;94.00
19292;DHT22;9779;51.756;7.450;2022-07-17T12:30:18;31.00;54.50
19292;DHT22;9779;51.756;7.450;2022-07-17T12:32:44;31.00;52.00
19292;DHT22;9779;51.756;7.450;2022-07-17T12:35:10;30.30;50.30
19292;DHT22;9779;51.756;7.450;2022-07-17T12:37:35;30.20;54.20
19292;DHT22;9779;51.756;7.450;2022-07-17T12:40:01;30.00;49.70
19292;DHT22;9779;51.756;7.450;2022-07-17T12:42:26;29.90;50.70
19292;DHT22;9779;51.756;7.450;2022-07-17T12:44:52;29.80;50.80
19292;DHT22;9779;51.756;7.450;2022-07-17T12:47:18;30.30;51.80
19292;DHT22;9779;51.756;7.450;2022-07-17T12:49:43;30.60;50.00
19292;DHT22;9779;51.756;7.450;2022-07-17T12:52:09;30.50;48.30
19292;DHT22;9779;51.756;7.450;2022-07-17T12:54:34;30.60;49.10
19292;DHT22;9779;51.756;7.450;2022-07-17T12:57:00;30.80;49.90
19292;DHT22;9779;51.756;7.450;2022-07-17T12:59:25;31.10;48.30
19292;DHT22;9779;51.756;7.450;2022-07-17T13:01:51;31.10;47.40
19292;DHT22;9779;51.756;7.450;2022-07-17T13:04:17;31.00;47.70
19292;DHT22;9779;51.756;7.450;2022-07-17T13:06:43;30.70;46.30
19292;DHT22;9779;51.756;7.450;2022-07-17T13:09:08;30.80;47.30
19292;DHT22;9779;51.756;7.450;2022-07-17T13:11:34;31.30;48.80
19292;DHT22;9779;51.756;7.450;2022-07-17T13:13:59;31.50;47.00
19292;DHT22;9779;51.756;7.450;2022-07-17T13:16:26;31.50;47.30
19292;DHT22;9779;51.756;7.450;2022-07-17T13:18:52;31.40;46.10
19292;DHT22;9779;51.756;7.450;2022-07-17T13:21:18;31.60;46.60
19292;DHT22;9779;51.756;7.450;2022-07-17T13:23:43;31.90;46.60
19292;DHT22;9779;51.756;7.450;2022-07-17T13:26:09;32.20;45.30
19292;DHT22;9779;51.756;7.450;2022-07-17T13:28:34;32.20;42.50
19292;DHT22;9779;51.756;7.450;2022-07-17T13:31:01;32.20;42.40
19292;DHT22;9779;51.756;7.450;2022-07-17T13:33:27;32.30;43.00
19292;DHT22;9779;51.756;7.450;2022-07-17T13:35:53;32.40;43.90
19292;DHT22;9779;51.756;7.450;2022-07-17T13:38:20;32.20;40.20
19292;DHT22;9779;51.756;7.450;2022-07-17T13:40:46;32.50;42.10
19292;DHT22;9779;51.756;7.450;2022-07-17T13:43:11;32.80;43.10
19292;DHT22;9779;51.756;7.450;2022-07-17T13:45:37;32.50;41.00
19292;DHT22;9779;51.756;7.450;2022-07-17T13:48:03;32.50;43.20
19292;DHT22;9779;51.756;7.450;2022-07-17T13:50:29;32.30;41.60
19292;DHT22;9779;51.756;7.450;2022-07-17T13:52:55;32.20;42.10
19292;DHT22;9779;51.756;7.450;2022-07-17T13:55:21;32.40;41.80
19292;DHT22;9779;51.756;7.450;2022-07-17T13:57:46;32.60;42.30
19292;DHT22;9779;51.756;7.450;2022-07-17T14:00:12;32.60;40.60
19292;DHT22;9779;51.756;7.450;2022-07-17T14:02:38;32.10;40.10
19292;DHT22;9779;51.756;7.450;2022-07-17T14:05:05;31.90;41.60
19292;DHT22;9779;51.756;7.450;2022-07-17T14:07:31;32.20;43.00
19292;DHT22;9779;51.756;7.450;2022-07-17T14:09:57;32.20;41.90
19292;DHT22;9779;51.756;7.450;2022-07-17T14:12:22;32.00;41.60
19292;DHT22;9779;51.756;7.450;2022-07-17T14:14:48;31.70;41.50
19292;DHT22;9779;51.756;7.450;2022-07-17T14:17:14;31.60;41.30
19292;DHT22;9779;51.756;7.450;2022-07-17T14:19:39;31.90;42.40
19292;DHT22;9779;51.756;7.450;2022-07-17T14:22:05;31.90;41.90
19292;DHT22;9779;51.756;7.450;2022-07-17T14:24:31;32.30;43.60
19292;DHT22;9779;51.756;7.450;2022-07-17T14:26:56;32.20;42.00
19292;DHT22;9779;51.756;7.450;2022-07-17T14:29:22;32.50;41.20
19292;DHT22;9779;51.756;7.450;2022-07-17T14:31:47;32.30;40.30
19292;DHT22;9779;51.756;7.450;2022-07-17T14:34:13;32.30;40.90
19292;DHT22;9779;51.756;7.450;2022-07-17T14:36:39;32.40;41.20
19292;DHT22;9779;51.756;7.450;2022-07-17T14:39:05;32.70;41.70
19292;DHT22;9779;51.756;7.450;2022-07-17T14:41:31;32.60;40.20
19292;DHT22;9779;51.756;7.450;2022-07-17T14:43:56;32.80;40.80
19292;DHT22;9779;51.756;7.450;2022-07-17T14:46:23;32.30;38.80
19292;DHT22;9779;51.756;7.450;2022-07-17T14:48:48;32.30;41.80
19292;DHT22;9779;51.756;7.450;2022-07-17T14:51:14;32.20;40.40
19292;DHT22;9779;51.756;7.450;2022-07-17T14:53:40;32.40;42.20
19292;DHT22;9779;51.756;7.450;2022-07-17T14:56:05;32.20;39.60
19292;DHT22;9779;51.756;7.450;2022-07-17T14:58:31;32.00;41.10
19292;DHT22;9779;51.756;7.450;2022-07-17T15:00:56;31.90;42.70
19292;DHT22;9779;51.756;7.450;2022-07-17T15:03:22;31.50;42.80
19292;DHT22;9779;51.756;7.450;2022-07-17T15:05:47;31.50;42.60
19292;DHT22;9779;51.756;7.450;2022-07-17T15:08:13;31.10;41.60
19292;DHT22;9779;51.756;7.450;2022-07-17T15:10:39;31.10;43.20
19292;DHT22;9779;51.756;7.450;2022-07-17T15:13:04;31.10;44.60
19292;DHT22;9779;51.756;7.450;2022-07-17T15:15:30;31.10;43.30
19292;DHT22;9779;51.756;7.450;2022-07-17T15:17:56;31.10;44.60
19292;DHT22;9779;51.756;7.450;2022-07-17T15:20:23;31.10;45.50
19292;DHT22;9779;51.756;7.450;2022-07-17T15:22:48;31.00;46.10
19292;DHT22;9779;51.756;7.450;2022-07-17T15:25:14;31.00;46.20
19292;DHT22;9779;51.756;7.450;2022-07-17T15:27:40;31.00;45.40
19292;DHT22;9779;51.756;7.450;2022-07-17T15:30:06;31.00;45.40
19292;DHT22;9779;51.756;7.450;2022-07-17T15:32:32;31.10;45.30
19292;DHT22;9779;51.756;7.450;2022-07-17T15:34:59;31.10;45.00
19292;DHT22;9779;51.756;7.450;2022-07-17T15:37:25;31.10;46.70
19292;DHT22;9779;51.756;7.450;2022-07-17T15:39:51;31.10;45.80
19292;DHT22;9779;51.756;7.450;2022-07-17T15:42:17;31.10;46.40
19292;DHT22;9779;51.756;7.450;2022-07-17T15:44:43;31.10;45.40
19292;DHT22;9779;51.756;7.450;2022-07-17T15:47:08;31.10;45.10
19292;DHT22;9779;51.756;7.450;2022-07-17T15:49:34;31.30;45.20
19292;DHT22;9779;51.756;7.450;2022-07-17T15:51:59;31.50;44.80
19292;DHT22;9779;51.756;7.450;2022-07-17T15:54:25;31.70;44.80
19292;DHT22;9779;51.756;7.450;2022-07-17T15:56:50;31.90;44.80
19292;DHT22;9779;51.756;7.450;2022-07-17T15:59:16;31.90;43.80
19292;DHT22;9779;51.756;7.450;2022-07-17T16:01:42;31.80;43.40
19292;DHT22;9779;51.756;7.450;2022-07-17T16:04:08;31.70;44.50
19292;DHT22;9779;51.756;7.450;2022-07-17T16:06:34;31.40;42.90
19292;DHT22;9779;51.756;7.450;2022-07-17T16:09:00;31.40;43.10
19292;DHT22;9779;51.756;7.450;2022-07-17T16:11:26;31.40;43.30
19292;DHT22;9779;51.756;7.450;2022-07-17T16:13:52;31.10;43.30